createdAt,value
2023-12-08T00:00:41.319Z,9.90
2023-12-08T00:03:08.817Z,9.55
2023-12-08T00:05:36.322Z,7.75
2023-12-08T00:08:04.244Z,7.65
2023-12-08T00:10:31.688Z,12.35
2023-12-08T00:12:59.158Z,8.52
2023-12-08T00:15:26.544Z,8.57
2023-12-08T00:17:54.233Z,9.88
2023-12-08T00:20:21.830Z,9.00
2023-12-08T00:22:49.292Z,9.82
2023-12-08T00:25:17.549Z,7.80
2023-12-08T00:27:44.934Z,8.32
2023-12-08T00:30:13.434Z,9.80
2023-12-08T00:32:41.198Z,9.85
2023-12-08T00:35:09.651Z,8.77
2023-12-08T00:37:37.238Z,8.65
2023-12-08T00:40:06.696Z,9.05
2023-12-08T00:42:34.258Z,6.22
2023-12-08T00:45:01.687Z,7.22
2023-12-08T00:47:30.696Z,11.32
2023-12-08T00:49:58.880Z,6.45
2023-12-08T00:52:26.341Z,8.10
2023-12-08T00:54:53.828Z,9.02
2023-12-08T00:57:21.324Z,8.10
2023-12-08T00:59:48.814Z,9.98
2023-12-08T01:02:16.368Z,10.07
2023-12-08T01:04:43.758Z,9.02
2023-12-08T01:07:11.839Z,6.03
2023-12-08T01:09:39.247Z,7.13
2023-12-08T01:12:07.112Z,7.95
2023-12-08T01:14:34.538Z,7.90
2023-12-08T01:17:02.180Z,8.98
2023-12-08T01:19:29.702Z,8.40
2023-12-08T01:21:57.123Z,8.48
2023-12-08T01:24:24.699Z,8.48
2023-12-08T01:26:52.140Z,7.95
2023-12-08T01:29:19.520Z,7.97
2023-12-08T01:31:46.967Z,7.38
2023-12-08T01:34:14.575Z,8.27
2023-12-08T01:36:44.312Z,7.97
2023-12-08T01:39:12.840Z,9.13
2023-12-08T01:41:40.894Z,8.18
2023-12-08T01:44:08.386Z,8.98
2023-12-08T01:46:36.086Z,8.00
2023-12-08T01:49:03.708Z,7.50
2023-12-08T01:51:31.211Z,7.65
2023-12-08T01:53:58.917Z,6.28
2023-12-08T01:56:27.070Z,7.15
2023-12-08T01:58:55.338Z,8.65
2023-12-08T02:01:22.934Z,9.85
2023-12-08T02:03:51.986Z,6.22
2023-12-08T02:06:19.835Z,7.50
2023-12-08T02:08:51.314Z,7.65
2023-12-08T02:11:19.038Z,6.65
2023-12-08T02:13:46.685Z,7.20
2023-12-08T02:16:23.971Z,8.35
2023-12-08T02:18:51.805Z,7.03
2023-12-08T02:21:19.383Z,6.30
2023-12-08T02:23:49.155Z,7.15
2023-12-08T02:26:17.764Z,7.68
2023-12-08T02:28:45.690Z,7.78
2023-12-08T02:31:15.649Z,7.47
2023-12-08T02:33:45.839Z,9.30
2023-12-08T02:36:15.375Z,7.70
2023-12-08T02:38:43.348Z,7.20
2023-12-08T02:41:10.883Z,7.57
2023-12-08T02:43:38.528Z,9.55
2023-12-08T02:46:06.028Z,8.32
2023-12-08T02:48:33.598Z,6.82
2023-12-08T02:51:01.078Z,8.20
2023-12-08T02:53:28.482Z,8.95
2023-12-08T02:55:56.005Z,8.68
2023-12-08T02:58:23.347Z,9.88
2023-12-08T03:00:50.958Z,8.88
2023-12-08T03:03:18.447Z,8.18
2023-12-08T03:05:46.095Z,9.60
2023-12-08T03:08:13.614Z,9.07
2023-12-08T03:10:41.247Z,9.30
2023-12-08T03:13:08.721Z,8.60
2023-12-08T03:15:36.169Z,10.10
2023-12-08T03:18:03.677Z,9.30
2023-12-08T03:20:31.194Z,9.80
2023-12-08T03:22:58.594Z,10.63
2023-12-08T03:25:26.220Z,11.45
2023-12-08T03:27:53.559Z,10.85
2023-12-08T03:30:21.247Z,10.25
2023-12-08T03:32:49.110Z,12.25
2023-12-08T03:35:16.587Z,10.15
2023-12-08T03:37:43.997Z,11.50
2023-12-08T03:40:11.608Z,12.65
2023-12-08T03:42:39.029Z,13.40
2023-12-08T03:45:06.962Z,12.52
2023-12-08T03:47:34.761Z,13.50
2023-12-08T03:50:02.523Z,14.30
2023-12-08T03:52:30.040Z,11.45
2023-12-08T03:54:57.963Z,12.13
2023-12-08T03:57:25.668Z,11.98
2023-12-08T03:59:53.419Z,10.13
2023-12-08T04:02:21.199Z,11.40
2023-12-08T04:04:48.675Z,18.52
2023-12-08T04:07:16.098Z,12.70
2023-12-08T04:09:44.053Z,18.08
2023-12-08T04:12:11.407Z,16.30
2023-12-08T04:14:38.977Z,13.68
2023-12-08T04:17:06.498Z,14.52
2023-12-08T04:19:33.901Z,15.27
2023-12-08T04:22:01.355Z,17.83
2023-12-08T04:24:28.882Z,13.88
2023-12-08T04:26:56.310Z,13.85
2023-12-08T04:29:23.871Z,16.88
2023-12-08T04:31:51.320Z,15.50
2023-12-08T04:34:19.013Z,15.18
2023-12-08T04:36:46.610Z,20.25
2023-12-08T04:39:14.197Z,17.20
2023-12-08T04:41:41.611Z,18.10
2023-12-08T04:44:09.207Z,17.77
2023-12-08T04:46:36.665Z,17.50
2023-12-08T04:49:04.332Z,20.27
2023-12-08T04:51:32.177Z,17.88
2023-12-08T04:53:59.827Z,25.48
2023-12-08T04:56:27.229Z,20.05
2023-12-08T04:58:54.663Z,20.73
2023-12-08T05:01:22.055Z,25.15
2023-12-08T05:03:49.560Z,22.77
2023-12-08T05:06:17.472Z,25.33
2023-12-08T05:08:45.055Z,22.15
2023-12-08T05:11:12.523Z,20.63
2023-12-08T05:13:39.907Z,28.80
2023-12-08T05:16:07.399Z,21.40
2023-12-08T05:18:34.894Z,21.95
2023-12-08T05:21:02.428Z,33.03
2023-12-08T05:23:30.220Z,28.13
2023-12-08T05:25:57.609Z,31.73
2023-12-08T05:28:24.978Z,20.48
2023-12-08T05:30:54.274Z,26.75
2023-12-08T05:33:21.823Z,25.80
2023-12-08T05:35:49.355Z,27.20
2023-12-08T05:38:17.132Z,30.33
2023-12-08T05:40:45.199Z,32.28
2023-12-08T05:43:12.799Z,24.33
2023-12-08T05:45:40.348Z,29.70
2023-12-08T05:48:07.908Z,25.05
2023-12-08T05:50:35.550Z,27.75
2023-12-08T05:53:03.012Z,27.30
2023-12-08T05:55:30.404Z,25.63
2023-12-08T05:57:57.973Z,25.85
2023-12-08T06:00:25.553Z,25.63
2023-12-08T06:02:53.202Z,33.88
2023-12-08T06:05:20.893Z,38.25
2023-12-08T06:07:48.451Z,27.88
2023-12-08T06:10:15.790Z,34.28
2023-12-08T06:12:43.180Z,40.38
2023-12-08T06:15:12.169Z,33.20
2023-12-08T06:17:39.794Z,35.70
2023-12-08T06:20:11.454Z,31.45
2023-12-08T06:22:39.210Z,36.20
2023-12-08T06:25:06.849Z,34.58
2023-12-08T06:27:34.628Z,32.22
2023-12-08T06:30:02.246Z,30.52
2023-12-08T06:32:30.062Z,34.30
2023-12-08T06:34:57.651Z,34.90
2023-12-08T06:37:25.345Z,40.25
2023-12-08T06:39:52.791Z,34.28
2023-12-08T06:42:20.638Z,37.63
2023-12-08T06:44:48.102Z,27.92
2023-12-08T06:47:15.481Z,33.53
2023-12-08T06:49:43.068Z,31.17
2023-12-08T06:52:10.632Z,29.42
2023-12-08T06:54:38.195Z,34.40
2023-12-08T06:57:06.135Z,27.55
2023-12-08T06:59:33.628Z,30.60
2023-12-08T07:02:01.151Z,34.25
2023-12-08T07:04:28.763Z,39.58
2023-12-08T07:06:57.192Z,29.55
2023-12-08T07:09:24.952Z,38.55
2023-12-08T07:11:52.486Z,35.97
2023-12-08T07:14:19.847Z,35.17
2023-12-08T07:16:47.296Z,39.28
2023-12-08T07:19:15.064Z,37.38
2023-12-08T07:21:43.688Z,44.55
2023-12-08T07:27:03.739Z,40.13
2023-12-08T07:29:47.178Z,38.97
2023-12-08T07:32:14.645Z,45.00
2023-12-08T07:34:42.075Z,36.88
2023-12-08T07:37:09.753Z,47.33
2023-12-08T07:39:42.700Z,47.55
2023-12-08T07:42:12.534Z,44.97
2023-12-08T07:44:39.950Z,39.75
2023-12-08T07:47:08.473Z,44.80
2023-12-08T07:49:36.039Z,38.53
2023-12-08T07:52:07.491Z,38.97
2023-12-08T07:54:35.426Z,49.78
2023-12-08T07:57:11.928Z,42.00
2023-12-08T07:59:39.522Z,50.72
2023-12-08T08:02:08.111Z,37.78
2023-12-08T08:04:35.576Z,49.45
2023-12-08T08:07:03.108Z,43.28
2023-12-08T08:09:30.640Z,50.30
2023-12-08T08:12:03.845Z,47.72
2023-12-08T08:14:32.267Z,46.30
2023-12-08T08:16:59.921Z,52.80
2023-12-08T08:19:29.408Z,41.13
2023-12-08T08:22:27.981Z,53.05
2023-12-08T08:24:44.506Z,45.88
2023-12-08T08:27:15.148Z,50.67
2023-12-08T08:29:53.786Z,56.63
2023-12-08T08:32:23.646Z,54.63
2023-12-08T08:34:58.221Z,53.95
2023-12-08T08:40:00.896Z,53.50
2023-12-08T08:42:43.606Z,58.65
2023-12-08T08:45:13.115Z,53.50
2023-12-08T08:47:41.437Z,59.90
2023-12-08T08:50:14.868Z,55.17
2023-12-08T08:52:42.309Z,70.35
2023-12-08T08:55:12.934Z,58.55
2023-12-08T08:57:42.673Z,64.07
2023-12-08T09:00:13.626Z,55.70
2023-12-08T09:02:47.081Z,54.20
2023-12-08T09:05:15.829Z,55.03
2023-12-08T09:07:43.590Z,60.65
2023-12-08T09:10:11.353Z,44.53
2023-12-08T09:12:38.762Z,52.78
2023-12-08T09:15:06.400Z,57.30
2023-12-08T09:17:33.913Z,54.03
2023-12-08T09:20:01.355Z,47.88
2023-12-08T09:22:29.006Z,54.90
2023-12-08T09:24:56.645Z,57.83
2023-12-08T09:27:27.900Z,48.80
2023-12-08T09:29:58.179Z,67.15
2023-12-08T09:32:26.173Z,55.72
2023-12-08T09:34:55.960Z,65.70
2023-12-08T09:37:28.252Z,53.28
2023-12-08T09:40:03.675Z,50.25
2023-12-08T09:42:38.504Z,51.42
2023-12-08T09:47:37.621Z,51.28
2023-12-08T09:50:07.197Z,54.72
2023-12-08T09:52:35.671Z,47.85
2023-12-08T09:55:05.116Z,53.15
2023-12-08T09:57:32.791Z,47.65
2023-12-08T10:00:01.761Z,51.03
2023-12-08T10:02:31.880Z,53.40
2023-12-08T10:04:59.646Z,53.00
2023-12-08T10:07:28.841Z,50.08
2023-12-08T10:09:56.676Z,54.10
2023-12-08T10:12:24.297Z,47.60
2023-12-08T10:14:52.365Z,60.90
2023-12-08T10:17:20.019Z,51.80
2023-12-08T10:19:47.635Z,52.53
2023-12-08T10:22:15.294Z,50.03
2023-12-08T10:24:42.981Z,48.78
2023-12-08T10:27:11.350Z,53.88
2023-12-08T10:29:38.857Z,53.58
2023-12-08T10:32:06.675Z,47.33
2023-12-08T10:34:34.723Z,56.50
2023-12-08T10:37:02.277Z,52.47
2023-12-08T10:39:29.944Z,56.17
2023-12-08T10:41:57.582Z,51.55
2023-12-08T10:44:26.835Z,45.42
2023-12-08T10:46:54.820Z,45.80
2023-12-08T10:49:23.450Z,40.38
2023-12-08T10:51:51.556Z,39.75
2023-12-08T10:54:19.606Z,41.80
2023-12-08T10:56:48.153Z,38.58
2023-12-08T10:59:20.192Z,39.10
2023-12-08T11:01:48.775Z,44.80
2023-12-08T11:04:19.831Z,33.08
2023-12-08T11:07:04.289Z,46.55
2023-12-08T11:09:36.375Z,47.42
2023-12-08T11:12:06.932Z,38.38
2023-12-08T11:14:43.675Z,35.70
2023-12-08T11:17:17.927Z,39.33
2023-12-08T11:19:46.277Z,42.33
2023-12-08T11:22:14.171Z,40.10
2023-12-08T11:24:42.941Z,41.85
2023-12-08T11:27:16.472Z,37.65
2023-12-08T11:29:44.028Z,39.13
2023-12-08T11:32:11.372Z,36.20
2023-12-08T11:34:43.883Z,40.70
2023-12-08T11:37:12.737Z,39.90
2023-12-08T11:39:43.657Z,34.90
2023-12-08T11:42:12.003Z,30.42
2023-12-08T11:44:41.044Z,35.90
2023-12-08T11:47:09.004Z,34.17
2023-12-08T11:49:40.246Z,38.53
2023-12-08T11:52:07.947Z,31.67
2023-12-08T11:55:06.330Z,45.55
2023-12-08T11:57:40.217Z,29.77
2023-12-08T12:00:10.715Z,29.17
2023-12-08T12:02:44.947Z,37.28
2023-12-08T12:05:12.821Z,34.95
2023-12-08T12:07:41.369Z,28.45
2023-12-08T12:10:09.982Z,30.60
2023-12-08T12:12:38.720Z,29.90
2023-12-08T12:15:07.037Z,30.92
2023-12-08T12:17:34.671Z,38.10
2023-12-08T12:20:02.518Z,31.45
2023-12-08T12:22:29.898Z,32.00
2023-12-08T12:24:57.380Z,24.65
2023-12-08T12:27:25.066Z,28.05
2023-12-08T12:29:52.617Z,24.83
2023-12-08T12:32:20.281Z,28.05
2023-12-08T12:34:47.687Z,24.75
2023-12-08T12:37:15.068Z,26.65
2023-12-08T12:39:43.622Z,25.20
2023-12-08T12:42:12.568Z,22.00
2023-12-08T12:44:41.200Z,28.60
2023-12-08T12:47:10.789Z,24.65
2023-12-08T12:49:39.234Z,21.67
2023-12-08T12:52:23.246Z,31.70
2023-12-08T12:54:50.682Z,26.52
2023-12-08T12:57:18.218Z,29.40
2023-12-08T12:59:55.706Z,19.33
2023-12-08T13:02:29.110Z,24.80
2023-12-08T13:04:57.219Z,19.77
2023-12-08T13:07:26.360Z,20.27
2023-12-08T13:09:54.461Z,25.83
2023-12-08T13:12:22.405Z,19.65
2023-12-08T13:14:50.716Z,18.90
2023-12-08T13:17:20.645Z,18.38
2023-12-08T13:19:49.425Z,22.33
2023-12-08T13:22:17.272Z,20.75
2023-12-08T13:24:48.469Z,15.85
2023-12-08T13:27:16.397Z,19.50
2023-12-08T13:29:43.831Z,16.20
2023-12-08T13:32:12.963Z,17.05
2023-12-08T13:34:41.335Z,22.02
2023-12-08T13:37:08.929Z,22.13
2023-12-08T13:39:36.613Z,21.27
2023-12-08T13:42:05.493Z,16.67
2023-12-08T13:44:32.947Z,22.30
2023-12-08T13:47:00.447Z,19.52
2023-12-08T13:49:28.148Z,21.45
2023-12-08T13:51:58.122Z,25.30
2023-12-08T13:54:26.629Z,21.90
2023-12-08T13:56:54.288Z,14.45
2023-12-08T13:59:22.290Z,20.95
2023-12-08T14:01:49.827Z,23.52
2023-12-08T14:04:17.589Z,19.75
2023-12-08T14:06:45.856Z,17.45
2023-12-08T14:09:13.339Z,17.65
2023-12-08T14:11:40.858Z,16.55
2023-12-08T14:14:08.553Z,22.02
2023-12-08T14:16:35.916Z,13.60
2023-12-08T14:19:03.582Z,24.10
2023-12-08T14:21:31.222Z,21.25
2023-12-08T14:23:58.741Z,21.55
2023-12-08T14:26:26.221Z,22.63
2023-12-08T14:28:53.833Z,21.08
2023-12-08T14:31:21.133Z,18.15
2023-12-08T14:33:48.997Z,13.40
2023-12-08T14:36:16.630Z,18.80
2023-12-08T14:38:44.635Z,19.27
2023-12-08T14:41:12.591Z,21.75
2023-12-08T14:43:39.958Z,21.30
2023-12-08T14:46:07.467Z,15.82
2023-12-08T14:48:36.519Z,19.35
2023-12-08T14:51:04.530Z,11.80
2023-12-08T14:53:32.053Z,19.13
2023-12-08T14:56:00.530Z,17.85
2023-12-08T14:58:28.203Z,20.23
2023-12-08T15:00:55.603Z,18.58
2023-12-08T15:03:25.340Z,19.30
2023-12-08T15:05:54.309Z,14.95
2023-12-08T15:08:22.844Z,19.33
2023-12-08T15:10:50.761Z,15.15
2023-12-08T15:13:18.803Z,15.48
2023-12-08T15:15:49.175Z,18.63
2023-12-08T15:18:17.498Z,20.02
2023-12-08T15:20:51.442Z,20.00
2023-12-08T15:23:19.449Z,17.38
2023-12-08T15:25:46.973Z,23.08
2023-12-08T15:28:14.467Z,17.85
2023-12-08T15:30:42.235Z,18.35
2023-12-08T15:33:09.870Z,18.05
2023-12-08T15:35:38.405Z,27.35
2023-12-08T15:38:10.697Z,26.25
2023-12-08T15:40:38.211Z,25.42
2023-12-08T15:43:06.795Z,19.45
2023-12-08T15:45:34.426Z,25.60
2023-12-08T15:48:02.058Z,30.17
2023-12-08T15:50:29.723Z,23.00
2023-12-08T15:52:57.273Z,22.83
2023-12-08T15:55:26.062Z,33.28
2023-12-08T15:57:54.142Z,21.20
2023-12-08T16:00:21.983Z,24.90
2023-12-08T16:02:49.423Z,30.92
2023-12-08T16:05:16.929Z,21.17
2023-12-08T16:07:44.541Z,21.05
2023-12-08T16:10:12.044Z,20.55
2023-12-08T16:12:39.397Z,28.05
2023-12-08T16:15:07.827Z,22.10
2023-12-08T16:17:35.624Z,26.23
2023-12-08T16:20:04.270Z,25.80
2023-12-08T16:22:31.914Z,23.38
2023-12-08T16:24:59.289Z,19.35
2023-12-08T16:27:26.944Z,19.58
2023-12-08T16:29:54.855Z,21.67
2023-12-08T16:32:22.412Z,19.08
2023-12-08T16:34:49.786Z,27.60
2023-12-08T16:37:17.323Z,32.63
2023-12-08T16:39:44.765Z,26.85
2023-12-08T16:42:12.320Z,23.02
2023-12-08T16:44:39.857Z,27.17
2023-12-08T16:47:07.263Z,23.88
2023-12-08T16:49:34.976Z,29.67
2023-12-08T16:52:02.477Z,25.35
2023-12-08T16:54:29.929Z,17.63
2023-12-08T16:56:57.448Z,19.73
2023-12-08T16:59:24.937Z,24.58
2023-12-08T17:01:52.375Z,24.05
2023-12-08T17:04:19.861Z,24.60
2023-12-08T17:06:47.520Z,24.70
2023-12-08T17:09:15.151Z,25.02
2023-12-08T17:11:42.602Z,22.88
2023-12-08T17:14:10.371Z,24.17
2023-12-08T17:16:37.710Z,21.98
2023-12-08T17:19:05.478Z,38.10
2023-12-08T17:21:33.188Z,21.25
2023-12-08T17:24:00.694Z,31.85
2023-12-08T17:26:36.476Z,28.95
2023-12-08T17:29:07.748Z,27.90
2023-12-08T17:31:35.084Z,24.65
2023-12-08T17:34:12.169Z,27.70
2023-12-08T17:36:46.390Z,24.70
2023-12-08T17:39:13.788Z,19.90
2023-12-08T17:41:44.450Z,23.00
2023-12-08T17:44:12.104Z,23.60
2023-12-08T17:46:40.016Z,25.83
2023-12-08T17:49:07.800Z,22.83
2023-12-08T17:51:35.468Z,28.55
2023-12-08T17:54:03.230Z,22.13
2023-12-08T17:56:30.757Z,21.15
2023-12-08T17:58:58.386Z,22.23
2023-12-08T18:01:25.839Z,28.23
2023-12-08T18:03:53.429Z,23.75
2023-12-08T18:06:22.410Z,30.00
2023-12-08T18:08:49.985Z,28.17
2023-12-08T18:11:21.839Z,22.63
2023-12-08T18:13:50.461Z,25.98
2023-12-08T18:16:27.930Z,29.55
2023-12-08T18:18:56.327Z,27.08
2023-12-08T18:21:31.280Z,28.55
2023-12-08T18:26:28.927Z,29.30
2023-12-08T18:29:07.982Z,22.77
2023-12-08T18:31:39.244Z,25.08
2023-12-08T18:34:07.128Z,25.38
2023-12-08T18:36:38.032Z,26.13
2023-12-08T18:39:06.357Z,33.95
2023-12-08T18:41:34.620Z,27.90
2023-12-08T18:44:02.113Z,25.05
2023-12-08T18:46:33.370Z,24.15
2023-12-08T18:49:02.377Z,29.88
2023-12-08T18:51:30.140Z,24.60
2023-12-08T18:53:58.197Z,31.42
2023-12-08T18:56:26.045Z,25.42
2023-12-08T18:58:56.824Z,22.92
2023-12-08T19:01:28.733Z,29.42
2023-12-08T19:03:56.254Z,22.67
2023-12-08T19:06:26.117Z,29.20
2023-12-08T19:08:53.914Z,29.42
2023-12-08T19:11:21.342Z,30.85
2023-12-08T19:13:48.805Z,26.65
2023-12-08T19:16:16.469Z,21.75
2023-12-08T19:18:44.100Z,29.92
2023-12-08T19:21:12.349Z,34.50
2023-12-08T19:23:39.903Z,32.30
2023-12-08T19:26:08.084Z,25.50
2023-12-08T19:28:35.707Z,25.13
2023-12-08T19:31:05.035Z,27.83
2023-12-08T19:33:32.728Z,27.42
2023-12-08T19:36:03.986Z,27.85
2023-12-08T19:38:31.756Z,19.42
2023-12-08T19:40:59.086Z,27.98
2023-12-08T19:43:30.545Z,22.75
2023-12-08T19:45:58.730Z,28.45
2023-12-08T19:48:27.110Z,23.85
2023-12-08T19:50:54.715Z,24.08
2023-12-08T19:53:22.202Z,27.35
2023-12-08T19:55:49.822Z,32.00
2023-12-08T19:58:17.972Z,25.25
2023-12-08T20:00:45.729Z,19.95
2023-12-08T20:03:13.345Z,26.50
2023-12-08T20:05:40.857Z,26.67
2023-12-08T20:08:08.470Z,24.85
2023-12-08T20:10:35.875Z,27.40
2023-12-08T20:13:03.205Z,32.13
2023-12-08T20:15:30.853Z,28.65
2023-12-08T20:17:58.507Z,29.98
2023-12-08T20:20:26.029Z,27.33
2023-12-08T20:22:53.512Z,23.50
2023-12-08T20:25:21.001Z,21.10
2023-12-08T20:27:50.051Z,26.27
2023-12-08T20:30:18.218Z,25.27
2023-12-08T20:32:46.241Z,19.80
2023-12-08T20:35:14.053Z,22.30
2023-12-08T20:37:41.623Z,23.98
2023-12-08T20:40:09.254Z,20.13
2023-12-08T20:42:36.624Z,25.52
2023-12-08T20:45:04.299Z,21.45
2023-12-08T20:47:32.066Z,24.33
2023-12-08T20:49:59.991Z,26.85
2023-12-08T20:52:27.682Z,23.27
2023-12-08T20:54:55.246Z,28.88
2023-12-08T20:57:22.693Z,20.02
2023-12-08T20:59:50.402Z,25.58
2023-12-08T21:02:17.839Z,24.00
2023-12-08T21:04:45.317Z,24.60
2023-12-08T21:07:13.366Z,22.15
2023-12-08T21:09:40.859Z,20.63
2023-12-08T21:12:08.359Z,25.88
2023-12-08T21:14:35.965Z,20.40
2023-12-08T21:17:03.462Z,20.73
2023-12-08T21:19:31.893Z,19.90
2023-12-08T21:22:02.690Z,14.82
2023-12-08T21:24:30.396Z,21.67
2023-12-08T21:26:57.847Z,21.88
2023-12-08T21:29:25.587Z,18.10
2023-12-08T21:31:53.334Z,23.90
2023-12-08T21:34:20.821Z,19.25
2023-12-08T21:36:48.552Z,23.63
2023-12-08T21:39:16.128Z,24.30
2023-12-08T21:41:43.561Z,24.38
2023-12-08T21:44:11.157Z,17.02
2023-12-08T21:46:38.545Z,25.38
2023-12-08T21:49:06.616Z,19.35
2023-12-08T21:51:34.347Z,19.60
2023-12-08T21:54:01.931Z,23.38
2023-12-08T21:56:31.355Z,19.55
2023-12-08T21:59:02.284Z,21.92
2023-12-08T22:01:29.834Z,23.52
2023-12-08T22:03:58.706Z,19.02
2023-12-08T22:06:26.888Z,16.20
2023-12-08T22:08:54.410Z,22.63
2023-12-08T22:11:21.821Z,17.48
2023-12-08T22:13:49.277Z,18.13
2023-12-08T22:16:16.772Z,19.13
2023-12-08T22:18:44.390Z,18.20
2023-12-08T22:21:13.691Z,16.30
2023-12-08T22:23:41.183Z,15.77
2023-12-08T22:26:08.615Z,17.75
2023-12-08T22:28:36.137Z,19.60
2023-12-08T22:31:03.779Z,21.80
2023-12-08T22:33:32.817Z,17.35
2023-12-08T22:36:02.043Z,20.52
2023-12-08T22:38:29.533Z,18.63
2023-12-08T22:40:57.136Z,18.88
2023-12-08T22:43:24.805Z,18.08
2023-12-08T22:45:52.294Z,19.52
2023-12-08T22:48:19.885Z,16.63
2023-12-08T22:50:50.440Z,22.35
2023-12-08T22:53:20.481Z,15.43
2023-12-08T22:55:47.854Z,15.57
2023-12-08T22:58:15.347Z,21.25
2023-12-08T23:00:42.840Z,18.50
2023-12-08T23:03:10.398Z,23.25
2023-12-08T23:05:37.967Z,14.32
2023-12-08T23:08:05.554Z,17.63
2023-12-08T23:10:32.892Z,15.48
2023-12-08T23:13:00.591Z,20.40
2023-12-08T23:15:27.968Z,17.27
2023-12-08T23:17:55.778Z,20.05
2023-12-08T23:20:23.732Z,14.02
2023-12-08T23:22:51.151Z,15.20
2023-12-08T23:25:18.557Z,15.85
2023-12-08T23:27:46.122Z,21.42
2023-12-08T23:30:13.698Z,18.30
2023-12-08T23:32:41.195Z,16.60
2023-12-08T23:35:09.245Z,15.57
2023-12-08T23:37:36.727Z,16.63
2023-12-08T23:40:04.200Z,26.23
2023-12-08T23:42:32.078Z,12.40
2023-12-08T23:44:59.612Z,19.25
2023-12-08T23:47:27.109Z,19.27
2023-12-08T23:49:54.590Z,21.58
2023-12-08T23:52:22.122Z,14.43
2023-12-08T23:54:49.712Z,14.32
2023-12-08T23:57:17.534Z,19.42
2023-12-08T23:59:45.022Z,14.63
